This is the latest recevied weather packets stored in our database for station/object SR7U-1. If no packets are shown the sender has not sent any weather packets the latest 10 day(s).
| Time | Temp. | Humidity | Pressure | Rain* | Wind** | Luminosity | Snow |
|---|---|---|---|---|---|---|---|
| 1777200580 | 7.78° C | 42% | 1018.4 hPa | - | - | - | - |
| 1777199700 | 7.78° C | 42% | 1018.1 hPa | - | - | - | - |
| 1777198915 | 8.33° C | 42% | 1018 hPa | - | - | - | - |
| 1777198060 | 7.78° C | 42% | 1018 hPa | - | - | - | - |
| 1777197274 | 8.33° C | 41% | 1017.8 hPa | - | - | - | - |
| 1777196545 | 7.78° C | 43% | 1017.8 hPa | - | - | - | - |
| 1777195783 | 7.78° C | 43% | 1017.8 hPa | - | - | - | - |
| 1777195055 | 7.22° C | 49% | 1017.8 hPa | - | - | - | - |
| 1777194230 | 7.22° C | 50% | 1017.4 hPa | - | - | - | - |
| 1777193384 | 7.78° C | 47% | 1017.3 hPa | - | - | - | - |
| 1777192615 | 6.67° C | 58% | 1017 hPa | - | - | - | - |
| 1777191725 | 7.22° C | 51% | 1016.9 hPa | - | - | - | - |
| 1777190915 | 7.22° C | 50% | 1016.9 hPa | - | - | - | - |
| 1777190175 | 6.11° C | 57% | 1016.7 hPa | - | - | - | - |
| 1777189458 | 7.22° C | 55% | 1016.5 hPa | - | - | - | - |
| 1777188639 | 6.67° C | 53% | 1016.4 hPa | - | - | - | - |
| 1777187860 | 6.11° C | 59% | 1016.2 hPa | - | - | - | - |
| 1777186961 | 6.11° C | 58% | 1016 hPa | - | - | - | - |
| 1777186109 | 5° C | 60% | 1016 hPa | - | - | - | - |
| 1777185287 | 6.11° C | 63% | 1015.5 hPa | - | - | - | - |
| 1777184530 | 5.56° C | 63% | 1015.6 hPa | - | - | - | - |
| 1777183760 | 5° C | 65% | 1015.2 hPa | - | - | - | - |
| 1777182885 | 5° C | 70% | 1015 hPa | - | - | - | - |
| 1777182025 | 4.44° C | 76% | 1014.8 hPa | - | - | - | - |
| 1777181210 | 3.89° C | 79% | 1014.5 hPa | - | - | - | - |
* Rain since midnight (hover to see other rain measurements)
** Current wind speed in m/s (hover to see current wind gust speed)